Soest, Netherlands
Current Conditions -  °F | °C
As of 9:25 AM on Monday 24 Nov 2014 (Local Time) from EHAM Reporting Station
Few Clouds Few Clouds  
Wind Chill: 43°   Ceiling: Unl
Heat Index: 43°   Visibility: 6mi
Dew Point: 39°   Wind: 3mph
Humidity: 87%   Direction: 200°SSW
Pressure: 30.21"   Gusts: NA
Location:  52.17°N, 5.29°E
Report Text: EHAM 240825Z 20003KT 180V250 9999 FEW035 06/04 Q1023 NOSIG
Loading
Personal Weather Stations






























Interactive Weather Map New forecast layout! Learn more

10-Day Weather Forecast

Advertisements
Track Severe Weather on mobile